sensor_id;sensor_type;location;lat;lon;timestamp;temperature;humidity
3996;DHT22;2012;49.794;9.722;2023-03-04T00:02:18;0.80;99.90
3996;DHT22;2012;49.794;9.722;2023-03-04T00:04:45;0.70;99.90
3996;DHT22;2012;49.794;9.722;2023-03-04T00:07:11;0.60;99.90
3996;DHT22;2012;49.794;9.722;2023-03-04T00:09:43;0.60;99.90
3996;DHT22;2012;49.794;9.722;2023-03-04T00:12:10;0.50;99.90
3996;DHT22;2012;49.794;9.722;2023-03-04T00:14:37;0.50;99.90
3996;DHT22;2012;49.794;9.722;2023-03-04T00:17:04;0.60;99.90
3996;DHT22;2012;49.794;9.722;2023-03-04T00:19:30;0.50;99.90
3996;DHT22;2012;49.794;9.722;2023-03-04T00:21:57;0.40;99.90
3996;DHT22;2012;49.794;9.722;2023-03-04T00:24:24;0.40;99.90
3996;DHT22;2012;49.794;9.722;2023-03-04T00:26:51;0.40;99.90
3996;DHT22;2012;49.794;9.722;2023-03-04T00:29:17;0.30;99.90
3996;DHT22;2012;49.794;9.722;2023-03-04T00:31:44;0.30;99.90
3996;DHT22;2012;49.794;9.722;2023-03-04T00:34:11;0.30;99.90
3996;DHT22;2012;49.794;9.722;2023-03-04T00:36:38;0.30;99.90
3996;DHT22;2012;49.794;9.722;2023-03-04T00:39:04;0.30;99.90
3996;DHT22;2012;49.794;9.722;2023-03-04T00:41:31;0.30;99.90
3996;DHT22;2012;49.794;9.722;2023-03-04T00:43:58;0.30;99.90
3996;DHT22;2012;49.794;9.722;2023-03-04T00:46:24;0.20;99.90
3996;DHT22;2012;49.794;9.722;2023-03-04T00:48:51;0.30;99.90
3996;DHT22;2012;49.794;9.722;2023-03-04T00:51:18;0.20;99.90
3996;DHT22;2012;49.794;9.722;2023-03-04T00:53:45;0.20;99.90
3996;DHT22;2012;49.794;9.722;2023-03-04T00:56:13;0.10;99.90
3996;DHT22;2012;49.794;9.722;2023-03-04T00:58:40;0.10;99.90
3996;DHT22;2012;49.794;9.722;2023-03-04T01:01:06;0.00;99.90
3996;DHT22;2012;49.794;9.722;2023-03-04T01:03:33;0.10;99.90
3996;DHT22;2012;49.794;9.722;2023-03-04T01:06:00;0.10;99.90
3996;DHT22;2012;49.794;9.722;2023-03-04T01:08:27;-0.10;99.90
3996;DHT22;2012;49.794;9.722;2023-03-04T01:10:54;0.00;99.90
3996;DHT22;2012;49.794;9.722;2023-03-04T01:13:20;-0.10;99.90
3996;DHT22;2012;49.794;9.722;2023-03-04T01:15:47;-0.10;99.90
3996;DHT22;2012;49.794;9.722;2023-03-04T01:18:14;-0.10;99.90
3996;DHT22;2012;49.794;9.722;2023-03-04T01:20:41;-0.10;99.90
3996;DHT22;2012;49.794;9.722;2023-03-04T01:23:08;-0.20;99.90
3996;DHT22;2012;49.794;9.722;2023-03-04T01:25:34;-0.10;99.90
3996;DHT22;2012;49.794;9.722;2023-03-04T01:28:01;-0.10;99.90
3996;DHT22;2012;49.794;9.722;2023-03-04T01:30:28;-0.20;99.90
3996;DHT22;2012;49.794;9.722;2023-03-04T01:32:54;-0.10;99.90
3996;DHT22;2012;49.794;9.722;2023-03-04T01:35:21;-0.10;99.90
3996;DHT22;2012;49.794;9.722;2023-03-04T01:37:48;-0.30;99.90
3996;DHT22;2012;49.794;9.722;2023-03-04T01:40:14;-0.30;99.90
3996;DHT22;2012;49.794;9.722;2023-03-04T01:42:42;-0.30;99.90
3996;DHT22;2012;49.794;9.722;2023-03-04T01:45:13;-0.30;99.90
3996;DHT22;2012;49.794;9.722;2023-03-04T01:47:43;-0.30;99.90
3996;DHT22;2012;49.794;9.722;2023-03-04T01:50:27;-0.30;99.90
3996;DHT22;2012;49.794;9.722;2023-03-04T01:52:54;-0.40;99.90
3996;DHT22;2012;49.794;9.722;2023-03-04T01:55:22;-0.40;99.90
3996;DHT22;2012;49.794;9.722;2023-03-04T01:57:50;-0.50;99.90
3996;DHT22;2012;49.794;9.722;2023-03-04T02:00:28;-0.30;99.90
3996;DHT22;2012;49.794;9.722;2023-03-04T02:03:02;-0.30;99.90
3996;DHT22;2012;49.794;9.722;2023-03-04T02:05:29;-0.40;99.90
3996;DHT22;2012;49.794;9.722;2023-03-04T02:07:57;-0.20;99.90
3996;DHT22;2012;49.794;9.722;2023-03-04T02:10:24;-0.20;99.90
3996;DHT22;2012;49.794;9.722;2023-03-04T02:12:52;-0.30;99.90
3996;DHT22;2012;49.794;9.722;2023-03-04T02:15:19;-0.20;99.90
3996;DHT22;2012;49.794;9.722;2023-03-04T02:17:46;-0.30;99.90
3996;DHT22;2012;49.794;9.722;2023-03-04T02:20:39;-0.30;99.90
3996;DHT22;2012;49.794;9.722;2023-03-04T02:23:32;-0.20;99.90
3996;DHT22;2012;49.794;9.722;2023-03-04T02:26:27;-0.10;99.90
3996;DHT22;2012;49.794;9.722;2023-03-04T02:28:56;-0.10;99.90
3996;DHT22;2012;49.794;9.722;2023-03-04T02:31:35;-0.10;99.90
3996;DHT22;2012;49.794;9.722;2023-03-04T02:34:11;-0.10;99.90
3996;DHT22;2012;49.794;9.722;2023-03-04T02:36:40;0.00;99.90
3996;DHT22;2012;49.794;9.722;2023-03-04T02:39:34;0.10;99.90
3996;DHT22;2012;49.794;9.722;2023-03-04T02:42:02;0.10;99.90
3996;DHT22;2012;49.794;9.722;2023-03-04T02:44:34;0.20;99.90
3996;DHT22;2012;49.794;9.722;2023-03-04T02:47:02;0.10;99.90
3996;DHT22;2012;49.794;9.722;2023-03-04T02:49:30;0.20;99.90
3996;DHT22;2012;49.794;9.722;2023-03-04T02:52:13;0.20;99.90
3996;DHT22;2012;49.794;9.722;2023-03-04T02:54:41;0.20;99.90
3996;DHT22;2012;49.794;9.722;2023-03-04T02:57:10;0.20;99.90
3996;DHT22;2012;49.794;9.722;2023-03-04T02:59:38;0.20;99.90
3996;DHT22;2012;49.794;9.722;2023-03-04T03:02:06;0.00;99.90
3996;DHT22;2012;49.794;9.722;2023-03-04T03:04:36;0.20;99.90
3996;DHT22;2012;49.794;9.722;2023-03-04T03:07:03;0.40;99.90
3996;DHT22;2012;49.794;9.722;2023-03-04T03:09:30;0.40;99.90
3996;DHT22;2012;49.794;9.722;2023-03-04T03:11:57;0.50;99.90
3996;DHT22;2012;49.794;9.722;2023-03-04T03:14:24;0.60;99.90
3996;DHT22;2012;49.794;9.722;2023-03-04T03:16:50;0.70;99.90
3996;DHT22;2012;49.794;9.722;2023-03-04T03:19:17;0.80;99.90
3996;DHT22;2012;49.794;9.722;2023-03-04T03:21:44;0.80;99.90
3996;DHT22;2012;49.794;9.722;2023-03-04T03:24:10;0.80;99.90
3996;DHT22;2012;49.794;9.722;2023-03-04T03:26:37;0.60;99.90
3996;DHT22;2012;49.794;9.722;2023-03-04T03:29:06;0.60;99.90
3996;DHT22;2012;49.794;9.722;2023-03-04T03:31:33;0.80;99.90
3996;DHT22;2012;49.794;9.722;2023-03-04T03:34:00;0.90;99.90
3996;DHT22;2012;49.794;9.722;2023-03-04T03:36:27;1.00;99.90
3996;DHT22;2012;49.794;9.722;2023-03-04T03:38:53;1.10;99.90
3996;DHT22;2012;49.794;9.722;2023-03-04T03:41:20;1.10;99.90
3996;DHT22;2012;49.794;9.722;2023-03-04T03:43:47;1.10;99.90
3996;DHT22;2012;49.794;9.722;2023-03-04T03:46:14;1.10;99.90
3996;DHT22;2012;49.794;9.722;2023-03-04T03:48:40;1.10;99.90
3996;DHT22;2012;49.794;9.722;2023-03-04T03:51:07;1.00;99.90
3996;DHT22;2012;49.794;9.722;2023-03-04T03:53:34;1.10;99.90
3996;DHT22;2012;49.794;9.722;2023-03-04T03:56:00;1.20;99.90
3996;DHT22;2012;49.794;9.722;2023-03-04T03:58:27;1.10;99.90
3996;DHT22;2012;49.794;9.722;2023-03-04T04:00:54;0.90;99.90
3996;DHT22;2012;49.794;9.722;2023-03-04T04:03:24;0.90;99.90
3996;DHT22;2012;49.794;9.722;2023-03-04T04:05:50;1.00;99.90
3996;DHT22;2012;49.794;9.722;2023-03-04T04:08:18;0.80;99.90
3996;DHT22;2012;49.794;9.722;2023-03-04T04:10:44;1.10;99.90
3996;DHT22;2012;49.794;9.722;2023-03-04T04:13:11;0.90;99.90
3996;DHT22;2012;49.794;9.722;2023-03-04T04:15:39;0.70;99.90
3996;DHT22;2012;49.794;9.722;2023-03-04T04:18:06;0.60;99.90
3996;DHT22;2012;49.794;9.722;2023-03-04T04:20:33;0.80;99.90
3996;DHT22;2012;49.794;9.722;2023-03-04T04:23:00;1.10;99.90
3996;DHT22;2012;49.794;9.722;2023-03-04T04:25:27;1.10;99.90
3996;DHT22;2012;49.794;9.722;2023-03-04T04:27:54;1.00;99.90
3996;DHT22;2012;49.794;9.722;2023-03-04T04:30:21;0.90;99.90
3996;DHT22;2012;49.794;9.722;2023-03-04T04:32:47;0.90;99.90
3996;DHT22;2012;49.794;9.722;2023-03-04T04:35:14;0.80;99.90
3996;DHT22;2012;49.794;9.722;2023-03-04T04:37:41;0.90;99.90
3996;DHT22;2012;49.794;9.722;2023-03-04T04:40:08;1.10;99.90
3996;DHT22;2012;49.794;9.722;2023-03-04T04:42:35;1.20;99.90
3996;DHT22;2012;49.794;9.722;2023-03-04T04:45:02;1.20;99.90
3996;DHT22;2012;49.794;9.722;2023-03-04T04:47:29;1.20;99.90
3996;DHT22;2012;49.794;9.722;2023-03-04T04:49:55;1.20;99.90
3996;DHT22;2012;49.794;9.722;2023-03-04T04:52:22;1.30;99.90
3996;DHT22;2012;49.794;9.722;2023-03-04T04:54:49;1.10;99.90
3996;DHT22;2012;49.794;9.722;2023-03-04T04:57:15;1.30;99.90
3996;DHT22;2012;49.794;9.722;2023-03-04T04:59:42;1.20;99.90
3996;DHT22;2012;49.794;9.722;2023-03-04T05:02:09;1.30;99.90
3996;DHT22;2012;49.794;9.722;2023-03-04T05:04:36;1.30;99.90
3996;DHT22;2012;49.794;9.722;2023-03-04T05:07:03;1.40;99.90
3996;DHT22;2012;49.794;9.722;2023-03-04T05:09:30;1.50;99.90
3996;DHT22;2012;49.794;9.722;2023-03-04T05:11:56;1.50;99.90
3996;DHT22;2012;49.794;9.722;2023-03-04T05:14:23;1.50;99.90
3996;DHT22;2012;49.794;9.722;2023-03-04T05:16:50;1.50;99.90
3996;DHT22;2012;49.794;9.722;2023-03-04T05:19:19;1.60;99.90
3996;DHT22;2012;49.794;9.722;2023-03-04T05:21:46;1.60;99.90
3996;DHT22;2012;49.794;9.722;2023-03-04T05:24:13;1.50;99.90
3996;DHT22;2012;49.794;9.722;2023-03-04T05:26:40;1.20;99.90
3996;DHT22;2012;49.794;9.722;2023-03-04T05:29:06;1.30;99.90
3996;DHT22;2012;49.794;9.722;2023-03-04T05:31:33;1.30;99.90
3996;DHT22;2012;49.794;9.722;2023-03-04T05:34:00;1.30;99.90
3996;DHT22;2012;49.794;9.722;2023-03-04T05:36:27;1.40;99.90
3996;DHT22;2012;49.794;9.722;2023-03-04T05:38:53;1.30;99.90
3996;DHT22;2012;49.794;9.722;2023-03-04T05:41:20;1.40;99.90
3996;DHT22;2012;49.794;9.722;2023-03-04T05:43:48;1.50;99.90
3996;DHT22;2012;49.794;9.722;2023-03-04T05:46:17;1.60;99.90
3996;DHT22;2012;49.794;9.722;2023-03-04T05:48:44;1.60;99.90
3996;DHT22;2012;49.794;9.722;2023-03-04T05:51:11;1.70;99.90
3996;DHT22;2012;49.794;9.722;2023-03-04T05:53:39;1.50;99.90
3996;DHT22;2012;49.794;9.722;2023-03-04T05:56:08;1.50;99.90
3996;DHT22;2012;49.794;9.722;2023-03-04T05:58:36;1.70;99.90
3996;DHT22;2012;49.794;9.722;2023-03-04T06:01:03;1.70;99.90
3996;DHT22;2012;49.794;9.722;2023-03-04T06:03:30;1.80;99.90
3996;DHT22;2012;49.794;9.722;2023-03-04T06:05:57;1.80;99.90
3996;DHT22;2012;49.794;9.722;2023-03-04T06:08:24;1.70;99.90
3996;DHT22;2012;49.794;9.722;2023-03-04T06:10:52;1.90;99.90
3996;DHT22;2012;49.794;9.722;2023-03-04T06:13:20;1.90;99.90
3996;DHT22;2012;49.794;9.722;2023-03-04T06:15:47;1.90;99.90
3996;DHT22;2012;49.794;9.722;2023-03-04T06:18:14;1.90;99.90
3996;DHT22;2012;49.794;9.722;2023-03-04T06:20:41;1.90;99.90
3996;DHT22;2012;49.794;9.722;2023-03-04T06:23:08;1.90;99.90
3996;DHT22;2012;49.794;9.722;2023-03-04T06:25:35;1.90;99.90
3996;DHT22;2012;49.794;9.722;2023-03-04T06:28:02;2.00;99.90
3996;DHT22;2012;49.794;9.722;2023-03-04T06:30:28;2.00;99.90
3996;DHT22;2012;49.794;9.722;2023-03-04T06:32:55;2.00;99.90
3996;DHT22;2012;49.794;9.722;2023-03-04T06:35:22;2.00;99.90
3996;DHT22;2012;49.794;9.722;2023-03-04T06:37:49;1.90;99.90
3996;DHT22;2012;49.794;9.722;2023-03-04T06:40:16;2.00;99.90
3996;DHT22;2012;49.794;9.722;2023-03-04T06:42:42;1.90;99.90
3996;DHT22;2012;49.794;9.722;2023-03-04T06:45:10;2.00;99.90
3996;DHT22;2012;49.794;9.722;2023-03-04T06:47:37;2.00;99.90
3996;DHT22;2012;49.794;9.722;2023-03-04T06:50:04;2.20;99.90
3996;DHT22;2012;49.794;9.722;2023-03-04T06:52:31;2.20;99.90
3996;DHT22;2012;49.794;9.722;2023-03-04T06:54:58;2.20;99.90
3996;DHT22;2012;49.794;9.722;2023-03-04T06:57:25;2.00;99.90
3996;DHT22;2012;49.794;9.722;2023-03-04T06:59:52;1.90;99.90
3996;DHT22;2012;49.794;9.722;2023-03-04T07:02:19;1.90;99.90
3996;DHT22;2012;49.794;9.722;2023-03-04T07:04:45;2.00;99.90
3996;DHT22;2012;49.794;9.722;2023-03-04T07:07:12;2.10;99.90
3996;DHT22;2012;49.794;9.722;2023-03-04T07:09:39;2.10;99.90
3996;DHT22;2012;49.794;9.722;2023-03-04T07:12:06;2.10;99.90
3996;DHT22;2012;49.794;9.722;2023-03-04T07:14:33;2.00;99.90
3996;DHT22;2012;49.794;9.722;2023-03-04T07:17:00;2.00;99.90
3996;DHT22;2012;49.794;9.722;2023-03-04T07:19:27;1.90;99.90
3996;DHT22;2012;49.794;9.722;2023-03-04T07:21:54;1.90;99.90
3996;DHT22;2012;49.794;9.722;2023-03-04T07:24:21;1.90;99.90
3996;DHT22;2012;49.794;9.722;2023-03-04T07:26:47;1.80;99.90
3996;DHT22;2012;49.794;9.722;2023-03-04T07:29:14;1.80;99.90
3996;DHT22;2012;49.794;9.722;2023-03-04T07:31:42;1.80;99.90
3996;DHT22;2012;49.794;9.722;2023-03-04T07:34:11;1.90;99.90
3996;DHT22;2012;49.794;9.722;2023-03-04T07:36:39;1.80;99.90
3996;DHT22;2012;49.794;9.722;2023-03-04T07:39:06;1.80;99.90
3996;DHT22;2012;49.794;9.722;2023-03-04T07:41:34;1.90;99.90
3996;DHT22;2012;49.794;9.722;2023-03-04T07:44:02;2.10;99.90
3996;DHT22;2012;49.794;9.722;2023-03-04T07:46:30;2.10;99.90
3996;DHT22;2012;49.794;9.722;2023-03-04T07:48:56;2.10;99.90
3996;DHT22;2012;49.794;9.722;2023-03-04T07:51:25;2.00;99.90
3996;DHT22;2012;49.794;9.722;2023-03-04T07:53:55;2.00;99.90
3996;DHT22;2012;49.794;9.722;2023-03-04T07:56:24;2.10;99.90
3996;DHT22;2012;49.794;9.722;2023-03-04T07:58:51;2.20;99.90
3996;DHT22;2012;49.794;9.722;2023-03-04T08:01:27;2.30;99.90
3996;DHT22;2012;49.794;9.722;2023-03-04T08:03:54;2.30;99.90
3996;DHT22;2012;49.794;9.722;2023-03-04T08:06:22;2.20;99.90
3996;DHT22;2012;49.794;9.722;2023-03-04T08:08:54;2.20;99.90
3996;DHT22;2012;49.794;9.722;2023-03-04T08:11:21;2.40;99.90
3996;DHT22;2012;49.794;9.722;2023-03-04T08:13:48;2.30;99.90
3996;DHT22;2012;49.794;9.722;2023-03-04T08:16:17;2.30;99.90
3996;DHT22;2012;49.794;9.722;2023-03-04T08:18:45;2.30;99.90
3996;DHT22;2012;49.794;9.722;2023-03-04T08:21:14;2.40;99.90
3996;DHT22;2012;49.794;9.722;2023-03-04T08:23:41;2.50;99.90
3996;DHT22;2012;49.794;9.722;2023-03-04T08:26:11;2.50;99.90
3996;DHT22;2012;49.794;9.722;2023-03-04T08:28:39;2.60;99.90
3996;DHT22;2012;49.794;9.722;2023-03-04T08:31:06;2.60;99.90
3996;DHT22;2012;49.794;9.722;2023-03-04T08:33:33;2.50;99.90
3996;DHT22;2012;49.794;9.722;2023-03-04T08:36:00;2.60;99.90
3996;DHT22;2012;49.794;9.722;2023-03-04T08:38:27;2.80;99.90
3996;DHT22;2012;49.794;9.722;2023-03-04T08:40:55;2.50;99.90
3996;DHT22;2012;49.794;9.722;2023-03-04T08:43:23;2.50;99.90
3996;DHT22;2012;49.794;9.722;2023-03-04T08:45:52;2.50;99.90
3996;DHT22;2012;49.794;9.722;2023-03-04T08:48:20;2.50;99.90
3996;DHT22;2012;49.794;9.722;2023-03-04T08:50:47;2.40;99.90
3996;DHT22;2012;49.794;9.722;2023-03-04T08:53:15;2.40;99.90
3996;DHT22;2012;49.794;9.722;2023-03-04T08:55:43;2.50;99.90
3996;DHT22;2012;49.794;9.722;2023-03-04T08:58:11;2.40;99.90
3996;DHT22;2012;49.794;9.722;2023-03-04T09:00:41;2.40;99.90
3996;DHT22;2012;49.794;9.722;2023-03-04T09:03:11;2.40;99.90
3996;DHT22;2012;49.794;9.722;2023-03-04T09:05:38;2.70;99.90
3996;DHT22;2012;49.794;9.722;2023-03-04T09:08:05;2.70;99.90
3996;DHT22;2012;49.794;9.722;2023-03-04T09:10:32;2.70;99.90
3996;DHT22;2012;49.794;9.722;2023-03-04T09:12:59;2.70;99.90
3996;DHT22;2012;49.794;9.722;2023-03-04T09:15:27;2.80;99.90
3996;DHT22;2012;49.794;9.722;2023-03-04T09:17:54;2.80;99.90
3996;DHT22;2012;49.794;9.722;2023-03-04T09:20:21;2.80;99.90
3996;DHT22;2012;49.794;9.722;2023-03-04T09:22:48;2.80;99.90
3996;DHT22;2012;49.794;9.722;2023-03-04T09:25:15;2.80;99.90
3996;DHT22;2012;49.794;9.722;2023-03-04T09:27:42;2.80;99.90
3996;DHT22;2012;49.794;9.722;2023-03-04T09:30:09;2.80;99.90
3996;DHT22;2012;49.794;9.722;2023-03-04T09:32:36;2.80;99.90
3996;DHT22;2012;49.794;9.722;2023-03-04T09:35:03;2.90;99.90
3996;DHT22;2012;49.794;9.722;2023-03-04T09:37:30;2.90;99.90
3996;DHT22;2012;49.794;9.722;2023-03-04T09:39:57;3.00;99.90
3996;DHT22;2012;49.794;9.722;2023-03-04T09:42:29;3.00;99.90
3996;DHT22;2012;49.794;9.722;2023-03-04T09:44:58;3.00;99.90
3996;DHT22;2012;49.794;9.722;2023-03-04T09:47:26;3.00;99.90
3996;DHT22;2012;49.794;9.722;2023-03-04T09:49:56;3.20;99.90
3996;DHT22;2012;49.794;9.722;2023-03-04T09:55:26;3.30;99.90
3996;DHT22;2012;49.794;9.722;2023-03-04T10:00:46;3.50;99.90
3996;DHT22;2012;49.794;9.722;2023-03-04T10:03:23;3.40;99.90
3996;DHT22;2012;49.794;9.722;2023-03-04T10:06:03;3.60;99.90
3996;DHT22;2012;49.794;9.722;2023-03-04T10:11:03;3.80;99.90
3996;DHT22;2012;49.794;9.722;2023-03-04T10:13:50;3.80;99.90
3996;DHT22;2012;49.794;9.722;2023-03-04T10:16:23;3.90;99.90
3996;DHT22;2012;49.794;9.722;2023-03-04T10:18:58;3.90;99.90
3996;DHT22;2012;49.794;9.722;2023-03-04T10:21:49;3.90;99.90
3996;DHT22;2012;49.794;9.722;2023-03-04T10:24:21;4.00;99.90
3996;DHT22;2012;49.794;9.722;2023-03-04T10:27:00;4.00;99.90
3996;DHT22;2012;49.794;9.722;2023-03-04T10:29:30;4.10;99.90
3996;DHT22;2012;49.794;9.722;2023-03-04T10:31:58;4.00;99.90
3996;DHT22;2012;49.794;9.722;2023-03-04T10:34:25;3.90;99.90
3996;DHT22;2012;49.794;9.722;2023-03-04T10:37:04;3.80;99.90
3996;DHT22;2012;49.794;9.722;2023-03-04T10:42:02;4.00;99.90
3996;DHT22;2012;49.794;9.722;2023-03-04T10:44:30;3.90;99.90
3996;DHT22;2012;49.794;9.722;2023-03-04T10:46:58;3.90;99.90
3996;DHT22;2012;49.794;9.722;2023-03-04T10:49:26;4.00;99.90
3996;DHT22;2012;49.794;9.722;2023-03-04T10:52:14;4.10;99.90
3996;DHT22;2012;49.794;9.722;2023-03-04T10:54:50;4.10;99.90
3996;DHT22;2012;49.794;9.722;2023-03-04T10:57:18;4.10;99.90
3996;DHT22;2012;49.794;9.722;2023-03-04T11:05:43;4.00;99.90
3996;DHT22;2012;49.794;9.722;2023-03-04T11:08:17;4.10;99.90
3996;DHT22;2012;49.794;9.722;2023-03-04T11:10:45;4.20;99.90
3996;DHT22;2012;49.794;9.722;2023-03-04T11:13:19;4.30;99.90
3996;DHT22;2012;49.794;9.722;2023-03-04T11:15:58;4.30;99.90
3996;DHT22;2012;49.794;9.722;2023-03-04T11:21:00;4.40;99.90
3996;DHT22;2012;49.794;9.722;2023-03-04T11:23:49;4.40;99.90
3996;DHT22;2012;49.794;9.722;2023-03-04T11:26:27;4.40;99.90
3996;DHT22;2012;49.794;9.722;2023-03-04T11:28:58;4.30;99.90
3996;DHT22;2012;49.794;9.722;2023-03-04T11:31:49;4.40;99.90
3996;DHT22;2012;49.794;9.722;2023-03-04T11:34:49;4.20;99.90
3996;DHT22;2012;49.794;9.722;2023-03-04T11:39:56;4.20;99.90
3996;DHT22;2012;49.794;9.722;2023-03-04T11:42:50;4.40;99.90
3996;DHT22;2012;49.794;9.722;2023-03-04T11:45:30;4.40;99.90
3996;DHT22;2012;49.794;9.722;2023-03-04T11:48:17;4.50;99.90
3996;DHT22;2012;49.794;9.722;2023-03-04T11:53:30;4.60;99.90
3996;DHT22;2012;49.794;9.722;2023-03-04T11:59:07;4.80;99.90
3996;DHT22;2012;49.794;9.722;2023-03-04T12:10:58;4.50;99.90
3996;DHT22;2012;49.794;9.722;2023-03-04T12:30:57;4.60;99.90
3996;DHT22;2012;49.794;9.722;2023-03-04T12:44:21;4.70;99.90
3996;DHT22;2012;49.794;9.722;2023-03-04T12:53:16;4.80;99.90
3996;DHT22;2012;49.794;9.722;2023-03-04T12:55:19;4.80;99.90
3996;DHT22;2012;49.794;9.722;2023-03-04T12:57:48;4.70;99.90
3996;DHT22;2012;49.794;9.722;2023-03-04T13:00:47;4.80;99.90
3996;DHT22;2012;49.794;9.722;2023-03-04T13:03:20;4.80;99.90
3996;DHT22;2012;49.794;9.722;2023-03-04T13:06:32;4.90;99.90
3996;DHT22;2012;49.794;9.722;2023-03-04T13:08:58;4.80;99.90
3996;DHT22;2012;49.794;9.722;2023-03-04T13:16:46;4.70;99.90
3996;DHT22;2012;49.794;9.722;2023-03-04T13:25:39;4.80;99.90
3996;DHT22;2012;49.794;9.722;2023-03-04T13:36:03;4.80;99.90
3996;DHT22;2012;49.794;9.722;2023-03-04T13:38:34;4.90;99.90
3996;DHT22;2012;49.794;9.722;2023-03-04T13:41:23;4.90;99.90
3996;DHT22;2012;49.794;9.722;2023-03-04T13:43:55;4.90;99.90
3996;DHT22;2012;49.794;9.722;2023-03-04T13:51:30;5.00;99.90
3996;DHT22;2012;49.794;9.722;2023-03-04T13:56:34;5.20;99.90
3996;DHT22;2012;49.794;9.722;2023-03-04T13:59:11;5.20;99.90
3996;DHT22;2012;49.794;9.722;2023-03-04T14:04:16;5.10;99.90
3996;DHT22;2012;49.794;9.722;2023-03-04T14:06:48;5.00;99.90
3996;DHT22;2012;49.794;9.722;2023-03-04T14:09:20;5.00;99.90
3996;DHT22;2012;49.794;9.722;2023-03-04T14:11:50;5.10;99.90
3996;DHT22;2012;49.794;9.722;2023-03-04T14:14:35;5.10;99.90
3996;DHT22;2012;49.794;9.722;2023-03-04T14:17:19;5.10;99.90
3996;DHT22;2012;49.794;9.722;2023-03-04T14:19:47;5.10;99.90
3996;DHT22;2012;49.794;9.722;2023-03-04T14:27:34;4.90;99.90
3996;DHT22;2012;49.794;9.722;2023-03-04T14:30:05;4.90;99.90
3996;DHT22;2012;49.794;9.722;2023-03-04T14:32:32;5.00;99.90
3996;DHT22;2012;49.794;9.722;2023-03-04T14:35:05;5.00;99.90
3996;DHT22;2012;49.794;9.722;2023-03-04T14:37:42;5.00;99.90
3996;DHT22;2012;49.794;9.722;2023-03-04T14:40:24;5.00;99.90
3996;DHT22;2012;49.794;9.722;2023-03-04T14:43:02;4.90;99.90
3996;DHT22;2012;49.794;9.722;2023-03-04T14:45:30;4.90;99.90
3996;DHT22;2012;49.794;9.722;2023-03-04T14:48:02;4.90;99.90
3996;DHT22;2012;49.794;9.722;2023-03-04T14:50:30;5.00;99.90
3996;DHT22;2012;49.794;9.722;2023-03-04T14:53:27;5.00;99.90
3996;DHT22;2012;49.794;9.722;2023-03-04T14:58:38;4.90;99.90
3996;DHT22;2012;49.794;9.722;2023-03-04T15:01:26;4.90;99.90
3996;DHT22;2012;49.794;9.722;2023-03-04T15:06:48;4.90;99.90
3996;DHT22;2012;49.794;9.722;2023-03-04T15:09:21;5.00;99.90
3996;DHT22;2012;49.794;9.722;2023-03-04T15:11:51;5.00;99.90
3996;DHT22;2012;49.794;9.722;2023-03-04T15:14:44;4.90;99.90
3996;DHT22;2012;49.794;9.722;2023-03-04T15:25:06;4.90;99.90
3996;DHT22;2012;49.794;9.722;2023-03-04T15:27:32;4.90;99.90
3996;DHT22;2012;49.794;9.722;2023-03-04T15:29:59;4.90;99.90
3996;DHT22;2012;49.794;9.722;2023-03-04T15:32:28;4.90;99.90
3996;DHT22;2012;49.794;9.722;2023-03-04T15:34:55;4.80;99.90
3996;DHT22;2012;49.794;9.722;2023-03-04T15:37:27;4.90;99.90
3996;DHT22;2012;49.794;9.722;2023-03-04T15:39:55;4.90;99.90
3996;DHT22;2012;49.794;9.722;2023-03-04T15:42:23;4.80;99.90
3996;DHT22;2012;49.794;9.722;2023-03-04T15:44:50;4.90;99.90
3996;DHT22;2012;49.794;9.722;2023-03-04T15:47:16;4.90;99.90
3996;DHT22;2012;49.794;9.722;2023-03-04T15:49:43;4.90;99.90
3996;DHT22;2012;49.794;9.722;2023-03-04T15:52:16;5.00;99.90
3996;DHT22;2012;49.794;9.722;2023-03-04T15:54:45;4.90;99.90
3996;DHT22;2012;49.794;9.722;2023-03-04T15:57:19;4.90;99.90
3996;DHT22;2012;49.794;9.722;2023-03-04T15:59:46;4.90;99.90
3996;DHT22;2012;49.794;9.722;2023-03-04T16:02:22;4.90;99.90
3996;DHT22;2012;49.794;9.722;2023-03-04T16:04:49;5.00;99.90
3996;DHT22;2012;49.794;9.722;2023-03-04T16:07:18;5.10;99.90
3996;DHT22;2012;49.794;9.722;2023-03-04T16:09:48;5.10;99.90
3996;DHT22;2012;49.794;9.722;2023-03-04T16:12:18;5.10;99.90
3996;DHT22;2012;49.794;9.722;2023-03-04T16:14:45;5.10;99.90
3996;DHT22;2012;49.794;9.722;2023-03-04T16:17:12;5.00;99.90
3996;DHT22;2012;49.794;9.722;2023-03-04T16:19:41;4.90;99.90
3996;DHT22;2012;49.794;9.722;2023-03-04T16:22:16;5.00;99.90
3996;DHT22;2012;49.794;9.722;2023-03-04T16:24:43;4.90;99.90
3996;DHT22;2012;49.794;9.722;2023-03-04T16:27:14;4.90;99.90
3996;DHT22;2012;49.794;9.722;2023-03-04T16:29:42;4.90;99.90
3996;DHT22;2012;49.794;9.722;2023-03-04T16:32:09;5.00;99.90
3996;DHT22;2012;49.794;9.722;2023-03-04T16:34:36;4.90;99.90
3996;DHT22;2012;49.794;9.722;2023-03-04T16:37:06;4.80;99.90
3996;DHT22;2012;49.794;9.722;2023-03-04T16:39:37;4.90;99.90
3996;DHT22;2012;49.794;9.722;2023-03-04T16:42:13;4.90;99.90
3996;DHT22;2012;49.794;9.722;2023-03-04T16:44:40;4.90;99.90
3996;DHT22;2012;49.794;9.722;2023-03-04T16:47:07;4.80;99.90
3996;DHT22;2012;49.794;9.722;2023-03-04T16:49:34;4.80;99.90
3996;DHT22;2012;49.794;9.722;2023-03-04T16:52:00;4.80;99.90
3996;DHT22;2012;49.794;9.722;2023-03-04T16:54:30;4.90;99.90
3996;DHT22;2012;49.794;9.722;2023-03-04T16:56:58;4.80;99.90
3996;DHT22;2012;49.794;9.722;2023-03-04T16:59:25;4.80;99.90
3996;DHT22;2012;49.794;9.722;2023-03-04T17:01:52;4.80;99.90
3996;DHT22;2012;49.794;9.722;2023-03-04T17:04:20;4.80;99.90
3996;DHT22;2012;49.794;9.722;2023-03-04T17:06:47;4.80;99.90
3996;DHT22;2012;49.794;9.722;2023-03-04T17:09:14;4.80;99.90
3996;DHT22;2012;49.794;9.722;2023-03-04T17:11:41;4.80;99.90
3996;DHT22;2012;49.794;9.722;2023-03-04T17:14:08;4.90;99.90
3996;DHT22;2012;49.794;9.722;2023-03-04T17:16:35;4.80;99.90
3996;DHT22;2012;49.794;9.722;2023-03-04T17:19:02;4.80;99.90
3996;DHT22;2012;49.794;9.722;2023-03-04T17:21:28;4.80;99.90
3996;DHT22;2012;49.794;9.722;2023-03-04T17:23:55;4.80;99.90
3996;DHT22;2012;49.794;9.722;2023-03-04T17:26:22;4.70;99.90
3996;DHT22;2012;49.794;9.722;2023-03-04T17:28:49;4.80;99.90
3996;DHT22;2012;49.794;9.722;2023-03-04T17:31:18;4.80;99.90
3996;DHT22;2012;49.794;9.722;2023-03-04T17:33:45;4.80;99.90
3996;DHT22;2012;49.794;9.722;2023-03-04T17:36:14;4.80;99.90
3996;DHT22;2012;49.794;9.722;2023-03-04T17:38:41;4.80;99.90
3996;DHT22;2012;49.794;9.722;2023-03-04T17:41:12;4.90;99.90
3996;DHT22;2012;49.794;9.722;2023-03-04T17:43:46;4.90;99.90
3996;DHT22;2012;49.794;9.722;2023-03-04T17:46:15;4.80;99.90
3996;DHT22;2012;49.794;9.722;2023-03-04T17:48:42;4.70;99.90
3996;DHT22;2012;49.794;9.722;2023-03-04T17:51:10;4.80;99.90
3996;DHT22;2012;49.794;9.722;2023-03-04T17:53:37;4.70;99.90
3996;DHT22;2012;49.794;9.722;2023-03-04T17:56:06;4.70;99.90
3996;DHT22;2012;49.794;9.722;2023-03-04T17:58:35;4.70;99.90
3996;DHT22;2012;49.794;9.722;2023-03-04T18:01:06;4.70;99.90
3996;DHT22;2012;49.794;9.722;2023-03-04T18:03:36;4.70;99.90
3996;DHT22;2012;49.794;9.722;2023-03-04T18:06:03;4.80;99.90
3996;DHT22;2012;49.794;9.722;2023-03-04T18:08:30;4.70;99.90
3996;DHT22;2012;49.794;9.722;2023-03-04T18:10:57;4.70;99.90
3996;DHT22;2012;49.794;9.722;2023-03-04T18:13:24;4.70;99.90
3996;DHT22;2012;49.794;9.722;2023-03-04T18:15:51;4.80;99.90
3996;DHT22;2012;49.794;9.722;2023-03-04T18:18:18;4.70;99.90
3996;DHT22;2012;49.794;9.722;2023-03-04T18:20:44;4.70;99.90
3996;DHT22;2012;49.794;9.722;2023-03-04T18:23:11;4.80;99.90
3996;DHT22;2012;49.794;9.722;2023-03-04T18:25:38;4.80;99.90
3996;DHT22;2012;49.794;9.722;2023-03-04T18:28:05;4.70;99.90
3996;DHT22;2012;49.794;9.722;2023-03-04T18:30:32;4.70;99.90
3996;DHT22;2012;49.794;9.722;2023-03-04T18:32:59;4.70;99.90